createdAt,value
2022-12-31T00:01:46.253Z,2.68
2022-12-31T00:04:14.228Z,2.70
2022-12-31T00:06:42.004Z,2.58
2022-12-31T00:09:11.424Z,2.81
2022-12-31T00:11:40.649Z,2.87
2022-12-31T00:14:08.667Z,2.91
2022-12-31T00:16:38.634Z,2.94
2022-12-31T00:19:07.946Z,3.07
2022-12-31T00:21:36.666Z,3.05
2022-12-31T00:24:05.894Z,3.15
2022-12-31T00:26:35.711Z,3.26
2022-12-31T00:29:06.119Z,3.25
2022-12-31T00:31:34.651Z,3.27
2022-12-31T00:34:03.129Z,3.16
2022-12-31T00:36:32.910Z,3.35
2022-12-31T00:39:02.456Z,3.41
2022-12-31T00:41:30.646Z,3.22
2022-12-31T00:43:58.888Z,3.36
2022-12-31T00:46:28.409Z,3.55
2022-12-31T00:48:56.366Z,3.64
2022-12-31T00:51:27.490Z,3.63
2022-12-31T00:53:55.905Z,3.65
2022-12-31T00:56:25.359Z,3.74
2022-12-31T00:58:53.573Z,3.55
2022-12-31T01:01:24.131Z,3.74
2022-12-31T01:03:55.608Z,3.86
2022-12-31T01:06:24.078Z,3.85
2022-12-31T01:08:53.187Z,3.90
2022-12-31T01:11:22.506Z,3.87
2022-12-31T01:13:52.844Z,3.95
2022-12-31T01:16:22.496Z,3.80
2022-12-31T01:18:50.745Z,3.96
2022-12-31T01:21:20.516Z,3.90
2022-12-31T01:23:48.896Z,3.98
2022-12-31T01:26:18.028Z,3.98
2022-12-31T01:28:45.830Z,4.01
2022-12-31T01:31:16.361Z,4.04
2022-12-31T01:33:45.289Z,4.05
2022-12-31T01:36:21.873Z,4.05
2022-12-31T01:38:57.327Z,4.05
2022-12-31T01:41:27.217Z,4.10
2022-12-31T01:43:57.267Z,4.11
2022-12-31T01:46:29.318Z,4.10
2022-12-31T01:49:01.493Z,4.14
2022-12-31T01:51:32.228Z,4.17
2022-12-31T01:54:03.177Z,4.19
2022-12-31T01:56:31.200Z,4.10
2022-12-31T01:58:59.870Z,4.24
2022-12-31T02:01:30.489Z,4.23
2022-12-31T02:03:59.057Z,4.11
2022-12-31T02:06:33.302Z,4.19
2022-12-31T02:09:02.745Z,4.28
2022-12-31T02:11:33.027Z,4.34
2022-12-31T02:14:05.077Z,4.34
2022-12-31T02:16:41.381Z,4.21
2022-12-31T02:19:32.124Z,4.25
2022-12-31T02:22:05.846Z,4.23
2022-12-31T02:24:49.506Z,4.25
2022-12-31T02:27:26.138Z,4.30
2022-12-31T02:30:07.722Z,4.29
2022-12-31T02:33:07.801Z,4.25
2022-12-31T02:35:44.885Z,4.25
2022-12-31T02:38:19.083Z,4.00
2022-12-31T02:40:48.084Z,3.87
2022-12-31T02:43:15.884Z,3.97
2022-12-31T02:45:48.749Z,3.95
2022-12-31T02:48:33.045Z,4.00
2022-12-31T02:51:13.332Z,3.91
2022-12-31T02:53:57.109Z,3.88
2022-12-31T02:56:31.176Z,3.76
2022-12-31T02:59:22.381Z,3.89
2022-12-31T03:02:13.799Z,3.86
2022-12-31T03:04:42.601Z,3.86
2022-12-31T03:07:13.862Z,3.82
2022-12-31T03:09:41.918Z,3.87
2022-12-31T03:12:29.366Z,3.85
2022-12-31T03:14:57.625Z,3.83
2022-12-31T03:17:26.785Z,3.82
2022-12-31T03:20:12.146Z,3.76
2022-12-31T03:22:43.498Z,3.80
2022-12-31T03:25:32.545Z,3.82
2022-12-31T03:28:01.254Z,3.82
2022-12-31T03:30:29.608Z,3.81
2022-12-31T03:32:59.208Z,3.69
2022-12-31T03:35:29.513Z,3.85
2022-12-31T03:37:57.817Z,3.87
2022-12-31T03:40:27.600Z,3.79
2022-12-31T03:42:55.522Z,3.83
2022-12-31T03:45:23.332Z,3.86
2022-12-31T03:47:51.363Z,3.79
2022-12-31T03:50:21.442Z,3.76
2022-12-31T03:52:49.217Z,3.82
2022-12-31T03:55:16.980Z,3.90
2022-12-31T03:57:44.873Z,3.91
2022-12-31T04:00:15.785Z,3.92
2022-12-31T04:02:43.647Z,3.96
2022-12-31T04:05:11.874Z,3.94
2022-12-31T04:07:41.335Z,3.97
2022-12-31T04:10:11.501Z,4.00
2022-12-31T04:12:40.112Z,4.04
2022-12-31T04:15:09.531Z,4.08
2022-12-31T04:17:37.337Z,4.00
2022-12-31T04:20:05.774Z,4.05
2022-12-31T04:22:33.641Z,4.15
2022-12-31T04:25:03.135Z,4.08
2022-12-31T04:27:31.312Z,4.15
2022-12-31T04:29:59.006Z,4.19
2022-12-31T04:32:26.865Z,4.16
2022-12-31T04:34:54.671Z,4.00
2022-12-31T04:37:22.726Z,4.10
2022-12-31T04:39:50.425Z,4.07
2022-12-31T04:42:19.505Z,4.21
2022-12-31T04:44:47.306Z,4.19
2022-12-31T04:47:18.737Z,4.18
2022-12-31T04:49:51.174Z,4.22
2022-12-31T04:52:18.970Z,4.21
2022-12-31T04:54:46.694Z,4.32
2022-12-31T04:57:14.611Z,4.23
2022-12-31T04:59:43.860Z,4.22
2022-12-31T05:02:11.764Z,4.27
2022-12-31T05:04:39.700Z,4.23
2022-12-31T05:07:07.414Z,4.27
2022-12-31T05:09:35.132Z,4.38
2022-12-31T05:12:03.010Z,4.36
2022-12-31T05:14:30.749Z,4.39
2022-12-31T05:17:01.158Z,4.36
2022-12-31T05:19:28.869Z,4.22
2022-12-31T05:22:10.501Z,4.16
2022-12-31T05:24:38.414Z,4.18
2022-12-31T05:27:06.227Z,4.15
2022-12-31T05:29:34.018Z,4.24
2022-12-31T05:32:03.291Z,4.13
2022-12-31T05:34:31.043Z,4.05
2022-12-31T05:36:58.754Z,4.02
2022-12-31T05:39:26.562Z,4.02
2022-12-31T05:41:54.297Z,4.01
2022-12-31T05:44:22.001Z,4.13
2022-12-31T05:46:49.864Z,4.04
2022-12-31T05:49:18.918Z,3.96
2022-12-31T05:51:46.662Z,4.04
2022-12-31T05:54:14.483Z,4.09
2022-12-31T05:56:42.193Z,3.96
2022-12-31T05:59:09.982Z,4.18
2022-12-31T06:01:37.864Z,4.29
2022-12-31T06:04:06.047Z,4.36
2022-12-31T06:06:35.418Z,4.44
2022-12-31T06:09:03.331Z,4.46
2022-12-31T06:11:31.283Z,4.42
2022-12-31T06:13:59.307Z,4.46
2022-12-31T06:16:28.100Z,4.48
2022-12-31T06:18:56.317Z,4.24
2022-12-31T06:21:24.205Z,4.28
2022-12-31T06:23:53.437Z,4.42
2022-12-31T06:26:21.447Z,4.57
2022-12-31T06:28:49.230Z,4.58
2022-12-31T06:31:17.177Z,4.42
2022-12-31T06:33:46.909Z,4.49
2022-12-31T06:36:16.900Z,4.44
2022-12-31T06:38:45.267Z,4.39
2022-12-31T06:41:16.738Z,4.51
2022-12-31T06:43:44.711Z,4.34
2022-12-31T06:46:14.558Z,4.50
2022-12-31T06:48:44.698Z,4.55
2022-12-31T06:51:17.302Z,4.64
2022-12-31T06:53:45.922Z,4.67
2022-12-31T06:56:18.569Z,4.59
2022-12-31T06:58:47.236Z,4.64
2022-12-31T07:01:32.883Z,4.70
2022-12-31T07:04:14.150Z,4.62
2022-12-31T07:06:49.879Z,4.74
2022-12-31T07:09:27.271Z,4.66
2022-12-31T07:12:04.944Z,4.75
2022-12-31T07:14:37.111Z,4.67
2022-12-31T07:17:21.673Z,4.52
2022-12-31T07:19:58.008Z,4.47
2022-12-31T07:22:26.619Z,4.34
2022-12-31T07:24:55.138Z,4.32
2022-12-31T07:27:37.733Z,4.33
2022-12-31T07:30:11.077Z,4.20
2022-12-31T07:32:57.537Z,4.32
2022-12-31T07:35:35.447Z,4.44
2022-12-31T07:38:09.015Z,4.30
2022-12-31T07:40:51.003Z,4.30
2022-12-31T07:43:35.581Z,4.35
2022-12-31T07:46:12.799Z,4.45
2022-12-31T07:48:41.114Z,4.39
2022-12-31T07:51:11.757Z,4.63
2022-12-31T07:53:39.546Z,4.52
2022-12-31T07:56:09.952Z,4.65
2022-12-31T07:58:48.976Z,4.57
2022-12-31T08:01:20.776Z,4.39
2022-12-31T08:03:56.403Z,4.39
2022-12-31T08:06:34.839Z,4.62
2022-12-31T08:09:08.197Z,4.70
2022-12-31T08:11:43.237Z,4.63
2022-12-31T08:14:14.650Z,4.60
2022-12-31T08:16:43.087Z,4.57
2022-12-31T08:19:23.573Z,4.57
2022-12-31T08:21:55.462Z,4.61
2022-12-31T08:24:30.031Z,4.59
2022-12-31T08:27:06.373Z,4.69
2022-12-31T08:29:43.208Z,4.59
2022-12-31T08:32:16.586Z,4.67
2022-12-31T08:34:55.776Z,4.56
2022-12-31T08:37:32.103Z,4.41
2022-12-31T08:40:14.129Z,4.39
2022-12-31T08:42:50.467Z,4.47
2022-12-31T08:45:29.216Z,4.52
2022-12-31T08:48:02.471Z,4.63
2022-12-31T08:50:31.115Z,4.66
2022-12-31T08:52:59.694Z,4.39
2022-12-31T08:55:28.029Z,4.56
2022-12-31T08:58:09.394Z,4.71
2022-12-31T09:00:39.768Z,4.78
2022-12-31T09:03:22.222Z,4.68
2022-12-31T09:05:58.706Z,4.57
2022-12-31T09:08:34.134Z,4.43
2022-12-31T09:11:08.759Z,4.54
2022-12-31T09:13:49.342Z,4.56
2022-12-31T09:16:26.123Z,4.49
2022-12-31T09:18:54.078Z,4.30
2022-12-31T09:21:22.160Z,4.65
2022-12-31T09:23:50.303Z,4.79
2022-12-31T09:26:36.297Z,4.82
2022-12-31T09:29:13.827Z,4.83
2022-12-31T09:31:52.543Z,4.74
2022-12-31T09:34:26.015Z,4.80
2022-12-31T09:36:58.409Z,4.66
2022-12-31T09:39:38.296Z,4.64
2022-12-31T09:42:39.055Z,4.55
2022-12-31T09:45:43.563Z,4.54
2022-12-31T09:48:50.855Z,4.47
2022-12-31T09:51:33.024Z,4.68
2022-12-31T09:54:26.520Z,4.68
2022-12-31T09:57:27.839Z,4.73
2022-12-31T10:00:01.762Z,4.84
2022-12-31T10:02:53.934Z,4.93
2022-12-31T10:05:49.432Z,4.63
2022-12-31T10:08:30.283Z,4.74
2022-12-31T10:11:00.622Z,4.94
2022-12-31T10:13:44.191Z,4.94
2022-12-31T10:16:25.766Z,4.86
2022-12-31T10:19:19.258Z,4.92
2022-12-31T10:22:03.294Z,4.98
2022-12-31T10:24:48.066Z,4.98
2022-12-31T10:27:29.619Z,4.77
2022-12-31T10:30:03.471Z,4.88
2022-12-31T10:32:43.261Z,4.96
2022-12-31T10:35:27.922Z,5.08
2022-12-31T10:38:13.780Z,5.14
2022-12-31T10:41:11.153Z,5.21
2022-12-31T10:44:25.532Z,5.20
2022-12-31T10:47:26.440Z,5.16
2022-12-31T10:50:13.582Z,5.22
2022-12-31T10:53:32.902Z,5.18
2022-12-31T10:56:38.917Z,5.26
2022-12-31T10:59:34.725Z,5.24
2022-12-31T11:02:21.517Z,5.25
2022-12-31T11:05:22.516Z,5.32
2022-12-31T11:08:07.475Z,5.32
2022-12-31T11:10:58.690Z,5.32
2022-12-31T11:13:52.107Z,5.26
2022-12-31T11:16:46.964Z,5.37
2022-12-31T11:19:22.657Z,5.18
2022-12-31T11:22:21.375Z,5.26
2022-12-31T11:25:14.182Z,5.27
2022-12-31T11:27:55.675Z,5.23
2022-12-31T11:30:34.034Z,5.21
2022-12-31T11:33:20.305Z,5.23
2022-12-31T11:36:10.302Z,5.17
2022-12-31T11:38:43.979Z,4.99
2022-12-31T11:41:17.542Z,5.09
2022-12-31T11:43:55.784Z,4.94
2022-12-31T11:46:41.442Z,4.98
2022-12-31T11:49:20.697Z,4.88
2022-12-31T11:52:18.246Z,4.79
2022-12-31T11:55:04.520Z,4.97
2022-12-31T11:57:35.916Z,5.09
2022-12-31T12:00:15.167Z,5.26
2022-12-31T12:02:46.834Z,5.25
2022-12-31T12:05:17.746Z,5.33
2022-12-31T12:07:45.915Z,5.39
2022-12-31T12:10:24.154Z,5.41
2022-12-31T12:12:53.313Z,5.32
2022-12-31T12:15:24.865Z,5.34
2022-12-31T12:17:57.627Z,5.39
2022-12-31T12:20:31.412Z,5.46
2022-12-31T12:23:02.384Z,5.34
2022-12-31T12:25:38.917Z,5.37
2022-12-31T12:28:19.745Z,5.32
2022-12-31T12:30:53.806Z,5.29
2022-12-31T12:33:23.577Z,5.36
2022-12-31T12:35:51.819Z,5.33
2022-12-31T12:38:21.925Z,5.35
2022-12-31T12:40:58.445Z,5.39
2022-12-31T12:43:28.233Z,5.36
2022-12-31T12:46:00.253Z,5.33
2022-12-31T12:48:36.459Z,5.44
2022-12-31T12:51:21.940Z,5.38
2022-12-31T12:53:58.872Z,5.47
2022-12-31T12:56:36.644Z,5.39
2022-12-31T12:59:27.780Z,5.56
2022-12-31T13:02:05.531Z,5.61
2022-12-31T13:04:52.573Z,5.70
2022-12-31T13:07:32.973Z,5.63
2022-12-31T13:10:24.157Z,5.66
2022-12-31T13:15:55.118Z,5.43
2022-12-31T13:18:37.038Z,5.48
2022-12-31T13:21:19.768Z,5.37
2022-12-31T13:23:53.718Z,5.33
2022-12-31T13:26:28.968Z,5.38
2022-12-31T13:28:59.624Z,5.34
2022-12-31T13:31:31.570Z,5.34
2022-12-31T13:34:05.523Z,5.34
2022-12-31T13:36:38.930Z,5.25
2022-12-31T13:39:13.499Z,5.11
2022-12-31T13:41:47.763Z,5.13
2022-12-31T13:44:20.346Z,5.13
2022-12-31T13:46:52.493Z,5.17
2022-12-31T13:49:26.152Z,5.09
2022-12-31T13:52:02.621Z,5.23
2022-12-31T13:54:39.267Z,5.21
2022-12-31T13:57:16.415Z,5.16
2022-12-31T13:59:49.538Z,5.15
2022-12-31T14:02:33.294Z,4.98
2022-12-31T14:05:07.642Z,4.99
2022-12-31T14:07:45.817Z,5.04
2022-12-31T14:10:14.912Z,4.91
2022-12-31T14:12:54.074Z,5.02
2022-12-31T14:15:26.302Z,4.89
2022-12-31T14:18:04.264Z,4.88
2022-12-31T14:20:41.140Z,5.03
2022-12-31T14:23:17.947Z,4.89
2022-12-31T14:25:52.030Z,4.90
2022-12-31T14:28:26.979Z,4.95
2022-12-31T14:31:01.180Z,4.91
2022-12-31T14:33:52.750Z,4.97
2022-12-31T14:36:35.982Z,4.93
2022-12-31T14:39:26.166Z,4.94
2022-12-31T14:42:05.231Z,4.82
2022-12-31T14:44:47.470Z,4.92
2022-12-31T14:47:28.059Z,4.97
2022-12-31T14:50:05.274Z,4.85
2022-12-31T14:52:34.660Z,4.70
2022-12-31T14:55:22.818Z,4.96
2022-12-31T15:00:41.022Z,4.91
2022-12-31T15:03:26.067Z,4.88
2022-12-31T15:05:58.533Z,5.06
2022-12-31T15:08:48.051Z,4.99
2022-12-31T15:11:48.527Z,4.95
2022-12-31T15:14:37.851Z,4.91
2022-12-31T15:17:17.214Z,4.99
2022-12-31T15:20:16.981Z,4.99
2022-12-31T15:22:47.608Z,4.97
2022-12-31T15:25:25.346Z,5.04
2022-12-31T15:27:55.282Z,4.96
2022-12-31T15:30:39.869Z,4.97
2022-12-31T15:33:10.906Z,4.98
2022-12-31T15:35:47.994Z,5.11
2022-12-31T15:38:31.574Z,5.11
2022-12-31T15:41:00.135Z,4.93
2022-12-31T15:43:40.880Z,4.90
2022-12-31T15:46:17.354Z,4.94
2022-12-31T15:48:52.133Z,4.78
2022-12-31T15:51:23.699Z,4.92
2022-12-31T15:53:54.418Z,4.87
2022-12-31T15:56:31.238Z,4.74
2022-12-31T15:59:03.622Z,4.95
2022-12-31T16:01:33.878Z,4.71
2022-12-31T16:04:05.725Z,4.90
2022-12-31T16:06:37.780Z,4.81
2022-12-31T16:09:09.027Z,4.90
2022-12-31T16:11:38.534Z,5.03
2022-12-31T16:14:07.813Z,4.94
2022-12-31T16:16:36.064Z,4.98
2022-12-31T16:19:03.977Z,4.86
2022-12-31T16:21:34.389Z,5.01
2022-12-31T16:24:03.238Z,4.96
2022-12-31T16:26:35.064Z,4.94
2022-12-31T16:29:04.613Z,5.17
2022-12-31T16:31:34.158Z,5.17
2022-12-31T16:34:07.144Z,5.27
2022-12-31T16:36:35.465Z,5.13
2022-12-31T16:39:25.487Z,5.18
2022-12-31T16:42:00.418Z,5.15
2022-12-31T16:44:30.141Z,5.18
2022-12-31T16:47:01.579Z,5.18
2022-12-31T16:49:32.571Z,5.34
2022-12-31T16:52:03.786Z,5.41
2022-12-31T16:54:35.330Z,5.40
2022-12-31T16:57:04.701Z,5.34
2022-12-31T16:59:36.213Z,5.28
2022-12-31T17:02:12.461Z,5.27
2022-12-31T17:04:46.043Z,5.40
2022-12-31T17:07:39.997Z,5.46
2022-12-31T17:10:19.406Z,5.37
2022-12-31T17:15:42.258Z,5.18
2022-12-31T17:18:18.549Z,5.11
2022-12-31T17:20:47.010Z,5.35
2022-12-31T17:23:24.677Z,5.28
2022-12-31T17:25:59.918Z,5.25
2022-12-31T17:28:33.213Z,5.22
2022-12-31T17:31:22.094Z,5.12
2022-12-31T17:33:54.941Z,5.15
2022-12-31T17:36:24.568Z,5.21
2022-12-31T17:38:52.491Z,5.31
2022-12-31T17:41:26.679Z,5.29
2022-12-31T17:43:58.685Z,5.21
2022-12-31T17:46:27.511Z,5.19
2022-12-31T17:49:03.564Z,5.23
2022-12-31T17:51:31.451Z,5.27
2022-12-31T17:54:01.233Z,5.33
2022-12-31T17:56:29.010Z,5.26
2022-12-31T17:58:57.099Z,5.25
2022-12-31T18:01:25.212Z,5.24
2022-12-31T18:03:53.097Z,5.22
2022-12-31T18:06:22.337Z,5.17
2022-12-31T18:08:50.059Z,5.18
2022-12-31T18:11:20.639Z,5.21
2022-12-31T18:13:48.901Z,5.13
2022-12-31T18:16:17.123Z,5.26
2022-12-31T18:18:45.378Z,5.22
2022-12-31T18:21:17.828Z,5.07
2022-12-31T18:23:48.804Z,5.27
2022-12-31T18:26:18.671Z,5.17
2022-12-31T18:28:46.982Z,5.01
2022-12-31T18:31:17.696Z,5.23
2022-12-31T18:33:46.910Z,5.12
2022-12-31T18:36:16.874Z,5.22
2022-12-31T18:38:46.038Z,5.15
2022-12-31T18:41:18.486Z,5.11
2022-12-31T18:43:46.656Z,5.11
2022-12-31T18:46:16.324Z,5.03
2022-12-31T18:48:44.430Z,5.16
2022-12-31T18:51:15.159Z,5.14
2022-12-31T18:53:43.099Z,5.09
2022-12-31T18:56:14.352Z,5.07
2022-12-31T18:58:43.145Z,5.11
2022-12-31T19:01:26.111Z,5.02
2022-12-31T19:03:54.605Z,4.85
2022-12-31T19:06:22.519Z,4.73
2022-12-31T19:08:50.339Z,4.82
2022-12-31T19:11:19.861Z,4.71
2022-12-31T19:13:47.586Z,4.53
2022-12-31T19:16:17.958Z,4.35
2022-12-31T19:18:46.246Z,4.38
2022-12-31T19:21:19.923Z,4.19
2022-12-31T19:23:48.588Z,4.13
2022-12-31T19:26:18.117Z,4.38
2022-12-31T19:28:48.354Z,4.41
2022-12-31T19:31:17.374Z,4.35
2022-12-31T19:33:45.938Z,4.33
2022-12-31T19:36:16.045Z,4.35
2022-12-31T19:38:44.148Z,4.33
2022-12-31T19:41:16.289Z,4.18
2022-12-31T19:43:44.085Z,4.32
2022-12-31T19:46:15.622Z,4.08
2022-12-31T19:48:44.133Z,4.07
2022-12-31T19:51:13.821Z,4.10
2022-12-31T19:53:41.743Z,4.27
2022-12-31T19:56:13.717Z,4.40
2022-12-31T19:58:42.000Z,4.32
2022-12-31T20:01:17.318Z,4.08
2022-12-31T20:03:46.547Z,4.21
2022-12-31T20:06:14.619Z,4.04
2022-12-31T20:08:44.274Z,4.29
2022-12-31T20:11:14.651Z,4.18
2022-12-31T20:13:43.246Z,3.90
2022-12-31T20:16:14.028Z,4.03
2022-12-31T20:18:43.313Z,3.67
2022-12-31T20:21:14.905Z,3.90
2022-12-31T20:23:42.719Z,3.77
2022-12-31T20:26:11.008Z,3.70
2022-12-31T20:28:39.164Z,3.79
2022-12-31T20:31:07.917Z,3.93
2022-12-31T20:33:35.830Z,3.73
2022-12-31T20:36:04.534Z,3.82
2022-12-31T20:38:34.138Z,3.77
2022-12-31T20:41:05.778Z,3.77
2022-12-31T20:43:34.304Z,4.13
2022-12-31T20:46:12.600Z,3.69
2022-12-31T20:48:43.135Z,3.61
2022-12-31T20:51:11.067Z,3.63
2022-12-31T20:53:40.213Z,3.70
2022-12-31T20:56:09.578Z,3.91
2022-12-31T20:58:37.578Z,3.56
2022-12-31T21:01:08.047Z,3.40
2022-12-31T21:04:04.452Z,3.29
2022-12-31T21:06:24.619Z,3.09
2022-12-31T21:08:55.116Z,3.08
2022-12-31T21:11:40.019Z,3.36
2022-12-31T21:14:08.356Z,3.26
2022-12-31T21:16:36.302Z,3.25
2022-12-31T21:19:04.501Z,3.32
2022-12-31T21:21:32.441Z,3.06
2022-12-31T21:24:01.560Z,3.16
2022-12-31T21:26:30.553Z,3.06
2022-12-31T21:28:58.538Z,3.03
2022-12-31T21:31:26.347Z,3.01
2022-12-31T21:33:54.165Z,2.74
2022-12-31T21:36:22.133Z,3.20
2022-12-31T21:38:49.924Z,3.11
2022-12-31T21:41:36.317Z,3.06
2022-12-31T21:44:04.794Z,2.90
2022-12-31T21:46:32.839Z,2.97
2022-12-31T21:49:01.779Z,2.98
2022-12-31T21:51:30.261Z,2.48
2022-12-31T21:53:58.382Z,2.34
2022-12-31T21:56:26.588Z,2.25
2022-12-31T21:59:15.641Z,2.38
2022-12-31T22:02:01.105Z,2.31
2022-12-31T22:07:17.723Z,2.10
2022-12-31T22:09:45.649Z,2.42
2022-12-31T22:12:14.726Z,2.20
2022-12-31T22:15:15.449Z,2.15
2022-12-31T22:17:30.325Z,1.84
2022-12-31T22:20:25.859Z,1.66
2022-12-31T22:22:45.870Z,1.44
2022-12-31T22:25:13.721Z,1.62
2022-12-31T22:27:53.071Z,1.66
2022-12-31T22:30:30.963Z,1.39
2022-12-31T22:32:59.020Z,1.18
2022-12-31T22:35:26.908Z,0.84
2022-12-31T22:37:58.481Z,1.14
2022-12-31T22:40:29.367Z,1.05
2022-12-31T22:42:58.595Z,1.13
2022-12-31T22:45:26.346Z,1.11
2022-12-31T22:47:54.197Z,1.43
2022-12-31T22:50:22.165Z,1.60
2022-12-31T22:52:49.865Z,1.55
2022-12-31T22:55:17.827Z,1.33
2022-12-31T22:57:45.738Z,1.08
2022-12-31T23:00:15.802Z,1.20
2022-12-31T23:02:43.660Z,1.04
2022-12-31T23:05:16.160Z,1.12
2022-12-31T23:07:44.376Z,1.08
2022-12-31T23:10:29.780Z,1.04
2022-12-31T23:12:57.512Z,1.05
2022-12-31T23:15:44.200Z,0.79
2022-12-31T23:18:29.442Z,0.85
2022-12-31T23:21:14.598Z,1.02
2022-12-31T23:23:42.352Z,0.76
2022-12-31T23:26:10.202Z,0.98
2022-12-31T23:28:37.913Z,0.82
2022-12-31T23:31:08.377Z,0.80
2022-12-31T23:33:36.053Z,1.14
2022-12-31T23:36:05.014Z,0.95
2022-12-31T23:38:32.719Z,0.94
2022-12-31T23:41:01.377Z,1.36
2022-12-31T23:43:29.425Z,1.38
2022-12-31T23:45:57.187Z,1.12
2022-12-31T23:48:26.380Z,1.10
2022-12-31T23:50:54.495Z,0.87
2022-12-31T23:53:22.902Z,0.91
2022-12-31T23:55:50.955Z,0.98
2022-12-31T23:58:18.785Z,1.01
